createdAt,value
2022-09-14T00:01:26.618Z,101645.03
2022-09-14T00:03:56.756Z,101651.22
2022-09-14T00:06:24.771Z,101662.06
2022-09-14T00:08:52.858Z,101684.59
2022-09-14T00:11:23.604Z,101685.41
2022-09-14T00:13:51.595Z,101696.50
2022-09-14T00:16:21.220Z,101693.59
2022-09-14T00:18:50.755Z,101702.44
2022-09-14T00:21:18.102Z,101696.94
2022-09-14T00:23:45.271Z,101701.88
2022-09-14T00:26:17.000Z,101712.44
2022-09-14T00:28:47.393Z,101716.78
2022-09-14T00:31:15.678Z,101707.63
2022-09-14T00:33:44.175Z,101708.59
2022-09-14T00:36:13.645Z,101716.78
2022-09-14T00:38:41.748Z,101721.38
2022-09-14T00:41:13.301Z,101715.69
2022-09-14T00:44:03.768Z,101736.53
2022-09-14T00:46:35.049Z,101733.72
2022-09-14T00:49:05.240Z,101732.69
2022-09-14T00:51:34.973Z,101741.66
2022-09-14T00:54:03.050Z,101745.56
2022-09-14T00:56:30.962Z,101753.63
2022-09-14T00:59:01.200Z,101757.75
2022-09-14T01:01:29.848Z,101765.81
2022-09-14T01:03:57.172Z,101779.13
2022-09-14T01:06:35.270Z,101792.38
2022-09-14T01:09:23.059Z,101802.28
2022-09-14T01:12:08.492Z,101813.56
2022-09-14T01:14:46.240Z,101815.41
2022-09-14T01:17:21.342Z,101813.16
2022-09-14T01:20:14.171Z,101824.53
2022-09-14T01:22:48.046Z,101830.13
2022-09-14T01:25:34.225Z,101846.22
2022-09-14T01:28:05.651Z,101846.56
2022-09-14T01:30:35.253Z,101854.59
2022-09-14T01:33:09.316Z,101857.34
2022-09-14T01:35:42.480Z,101867.94
2022-09-14T01:38:14.864Z,101890.41
2022-09-14T01:40:45.693Z,101899.22
2022-09-14T01:43:18.066Z,101909.66
2022-09-14T01:45:49.122Z,101924.94
2022-09-14T01:48:19.689Z,101939.28
2022-09-14T01:50:50.359Z,101942.53
2022-09-14T01:53:24.153Z,101954.09
2022-09-14T01:55:55.340Z,101965.38
2022-09-14T01:58:29.399Z,101961.84
2022-09-14T02:01:00.676Z,101957.91
2022-09-14T02:03:31.747Z,101963.50
2022-09-14T02:06:09.343Z,101961.00
2022-09-14T02:08:37.186Z,101967.53
2022-09-14T02:11:04.486Z,101965.50
2022-09-14T02:13:33.435Z,101947.63
2022-09-14T02:16:01.149Z,101951.31
2022-09-14T02:18:28.475Z,101944.81
2022-09-14T02:21:00.608Z,101940.69
2022-09-14T02:23:30.544Z,101938.75
2022-09-14T02:25:58.153Z,101938.25
2022-09-14T02:28:25.442Z,101925.53
2022-09-14T02:31:03.465Z,101923.00
2022-09-14T02:33:39.719Z,101927.56
2022-09-14T02:36:15.937Z,101870.69
2022-09-14T02:38:50.324Z,101863.41
2022-09-14T02:41:25.367Z,101851.88
2022-09-14T02:43:59.557Z,101841.09
2022-09-14T02:46:36.593Z,101841.97
2022-09-14T02:49:11.460Z,101823.34
2022-09-14T02:51:46.141Z,101820.53
2022-09-14T02:54:17.309Z,101824.47
2022-09-14T02:56:44.962Z,101820.97
2022-09-14T02:59:12.502Z,101820.53
2022-09-14T03:01:41.207Z,101820.09
2022-09-14T03:04:08.553Z,101814.94
2022-09-14T03:06:35.885Z,101806.97
2022-09-14T03:09:03.518Z,101796.66
2022-09-14T03:11:30.766Z,101792.28
2022-09-14T03:13:57.958Z,101787.56
2022-09-14T03:16:25.267Z,101787.16
2022-09-14T03:18:53.967Z,101789.38
2022-09-14T03:21:21.177Z,101785.97
2022-09-14T03:23:50.821Z,101784.75
2022-09-14T03:26:19.883Z,101768.81
2022-09-14T03:28:50.498Z,101767.72
2022-09-14T03:31:17.897Z,101774.56
2022-09-14T03:33:45.160Z,101770.53
2022-09-14T03:36:16.242Z,101769.03
2022-09-14T03:38:44.608Z,101760.28
2022-09-14T03:41:13.383Z,101762.72
2022-09-14T03:43:41.187Z,101767.88
2022-09-14T03:46:10.172Z,101773.03
2022-09-14T03:48:38.096Z,101773.91
2022-09-14T03:51:07.140Z,101777.94
2022-09-14T03:53:36.199Z,101779.59
2022-09-14T03:56:07.135Z,101773.56
2022-09-14T03:58:34.432Z,101766.47
2022-09-14T04:01:05.613Z,101777.16
2022-09-14T04:03:33.380Z,101770.84
2022-09-14T04:06:00.687Z,101778.94
2022-09-14T04:08:28.033Z,101768.56
2022-09-14T04:10:56.644Z,101770.16
2022-09-14T04:13:23.951Z,101764.72
2022-09-14T04:15:58.542Z,101757.97
2022-09-14T04:18:26.490Z,101773.09
2022-09-14T04:20:55.339Z,101775.91
2022-09-14T04:23:22.789Z,101768.63
2022-09-14T04:25:50.035Z,101754.28
2022-09-14T04:28:20.552Z,101763.84
2022-09-14T04:30:55.621Z,101772.75
2022-09-14T04:33:22.897Z,101770.63
2022-09-14T04:35:57.990Z,101773.09
2022-09-14T04:38:25.594Z,101788.50
2022-09-14T04:40:52.940Z,101785.72
2022-09-14T04:43:21.666Z,101785.19
2022-09-14T04:45:48.933Z,101779.69
2022-09-14T04:48:16.140Z,101780.41
2022-09-14T04:50:43.904Z,101769.97
2022-09-14T04:53:11.608Z,101765.09
2022-09-14T04:55:38.986Z,101777.38
2022-09-14T04:58:06.292Z,101780.00
2022-09-14T05:00:36.526Z,101780.72
2022-09-14T05:03:04.643Z,101776.72
2022-09-14T05:05:35.455Z,101772.31
2022-09-14T05:08:03.063Z,101767.44
2022-09-14T05:10:30.540Z,101767.63
2022-09-14T05:12:57.756Z,101759.41
2022-09-14T05:15:25.115Z,101737.88
2022-09-14T05:17:53.763Z,101742.41
2022-09-14T05:20:20.965Z,101734.47
2022-09-14T05:22:49.966Z,101732.28
2022-09-14T05:25:17.504Z,101713.38
2022-09-14T05:27:44.704Z,101700.75
2022-09-14T05:30:12.252Z,101693.91
2022-09-14T05:32:39.489Z,101680.09
2022-09-14T05:35:09.016Z,101675.44
2022-09-14T05:37:36.271Z,101669.66
2022-09-14T05:40:04.112Z,101657.72
2022-09-14T05:42:31.444Z,101650.78
2022-09-14T05:44:58.661Z,101639.38
2022-09-14T05:47:34.819Z,101622.44
2022-09-14T05:50:05.126Z,101600.94
2022-09-14T05:52:33.822Z,101603.75
2022-09-14T05:55:01.015Z,101589.19
2022-09-14T05:57:28.247Z,101580.13
2022-09-14T05:59:55.518Z,101564.91
2022-09-14T06:02:23.082Z,101547.47
2022-09-14T06:04:50.408Z,101528.88
2022-09-14T06:07:18.994Z,101530.88
2022-09-14T06:09:47.796Z,101518.56
2022-09-14T06:12:15.041Z,101514.84
2022-09-14T06:14:42.220Z,101492.28
2022-09-14T06:17:09.497Z,101485.31
2022-09-14T06:19:36.718Z,101471.41
2022-09-14T06:22:04.147Z,101467.66
2022-09-14T06:24:31.363Z,101446.44
2022-09-14T06:26:59.963Z,101426.16
2022-09-14T06:29:27.137Z,101409.53
2022-09-14T06:31:54.552Z,101414.94
2022-09-14T06:34:21.762Z,101404.25
2022-09-14T06:36:49.015Z,101401.19
2022-09-14T06:39:16.386Z,101393.94
2022-09-14T06:41:43.887Z,101400.19
2022-09-14T06:44:20.642Z,101371.44
2022-09-14T06:46:47.928Z,101375.50
2022-09-14T06:49:15.645Z,101367.22
2022-09-14T06:51:44.576Z,101359.25
2022-09-14T06:54:12.755Z,101357.13
2022-09-14T06:56:41.533Z,101356.63
2022-09-14T06:59:10.290Z,101365.28
2022-09-14T07:01:39.366Z,101373.44
2022-09-14T07:04:07.455Z,101364.09
2022-09-14T07:06:40.139Z,101355.78
2022-09-14T07:09:07.846Z,101363.09
2022-09-14T07:11:35.451Z,101367.63
2022-09-14T07:14:03.289Z,101349.31
2022-09-14T07:16:32.420Z,101347.53
2022-09-14T07:19:02.762Z,101330.97
2022-09-14T07:21:32.154Z,101335.09
2022-09-14T07:23:59.979Z,101328.03
2022-09-14T07:26:28.763Z,101332.47
2022-09-14T07:28:58.115Z,101312.50
2022-09-14T07:31:27.489Z,101298.13
2022-09-14T07:33:56.456Z,101283.44
2022-09-14T07:36:27.500Z,101273.75
2022-09-14T07:38:55.878Z,101262.19
2022-09-14T07:41:25.737Z,101254.31
2022-09-14T07:43:55.414Z,101220.22
2022-09-14T07:46:23.925Z,101201.72
2022-09-14T07:48:55.456Z,101170.81
2022-09-14T07:51:23.529Z,101174.59
2022-09-14T07:53:52.470Z,101175.31
2022-09-14T07:56:20.276Z,101167.88
2022-09-14T07:58:51.454Z,101175.56
2022-09-14T08:01:21.618Z,101188.56
2022-09-14T08:03:49.273Z,101189.56
2022-09-14T08:06:18.118Z,101176.84
2022-09-14T08:08:48.452Z,101175.28
2022-09-14T08:11:19.213Z,101171.41
2022-09-14T08:13:49.592Z,101161.53
2022-09-14T08:16:17.887Z,101155.97
2022-09-14T08:18:46.014Z,101140.19
2022-09-14T08:21:15.078Z,101117.22
2022-09-14T08:23:43.362Z,101123.97
2022-09-14T08:26:15.005Z,101113.94
2022-09-14T08:28:44.159Z,101114.50
2022-09-14T08:31:13.224Z,101109.28
2022-09-14T08:33:42.764Z,101084.16
2022-09-14T08:36:12.108Z,101053.72
2022-09-14T08:38:39.712Z,101033.94
2022-09-14T08:41:17.754Z,101015.56
2022-09-14T08:43:46.820Z,101017.63
2022-09-14T08:46:23.759Z,101016.22
2022-09-14T08:48:52.247Z,101016.13
2022-09-14T08:51:19.579Z,101017.63
2022-09-14T08:53:47.033Z,101024.81
2022-09-14T08:56:18.629Z,101030.97
2022-09-14T08:59:28.439Z,101010.03
2022-09-14T09:02:09.485Z,100958.47
2022-09-14T09:04:47.822Z,100940.88
2022-09-14T09:07:21.714Z,100951.81
2022-09-14T09:09:50.960Z,100903.53
2022-09-14T09:12:20.577Z,100885.31
2022-09-14T09:14:52.590Z,100885.28
2022-09-14T09:17:24.601Z,100834.22
2022-09-14T09:20:02.929Z,100711.91
2022-09-14T09:22:38.068Z,100620.19
2022-09-14T09:25:15.835Z,100640.84
2022-09-14T09:27:43.033Z,100619.72
2022-09-14T09:30:14.743Z,100611.25
2022-09-14T09:32:43.017Z,100599.88
2022-09-14T09:35:33.474Z,100586.22
2022-09-14T09:38:13.244Z,100575.16
2022-09-14T09:40:43.833Z,100576.09
2022-09-14T09:43:24.249Z,100574.06
2022-09-14T09:46:04.073Z,100565.84
2022-09-14T09:48:33.478Z,100566.91
2022-09-14T09:51:12.430Z,100574.94
2022-09-14T09:53:51.577Z,100564.09
2022-09-14T09:56:22.974Z,100572.38
2022-09-14T09:58:50.528Z,100567.50
2022-09-14T10:01:22.763Z,100558.53
2022-09-14T10:04:05.973Z,100552.66
2022-09-14T10:06:42.178Z,100557.00
2022-09-14T10:09:15.578Z,100557.25
2022-09-14T10:11:43.628Z,100560.72
2022-09-14T10:14:25.004Z,100575.72
2022-09-14T10:16:54.125Z,100583.72
2022-09-14T10:19:23.712Z,100576.72
2022-09-14T10:22:19.226Z,100557.66
2022-09-14T10:24:57.615Z,100570.06
2022-09-14T10:27:37.743Z,100572.38
2022-09-14T10:30:11.365Z,100576.97
2022-09-14T10:32:42.374Z,100576.41
2022-09-14T10:35:14.585Z,100556.72
2022-09-14T10:37:54.460Z,100572.00
2022-09-14T10:40:29.089Z,100569.69
2022-09-14T10:43:09.654Z,100577.38
2022-09-14T10:45:41.123Z,100574.22
2022-09-14T10:48:35.964Z,100577.72
2022-09-14T10:51:22.239Z,100558.75
2022-09-14T10:53:55.413Z,100563.88
2022-09-14T10:56:28.448Z,100560.22
2022-09-14T10:59:16.600Z,100559.00
2022-09-14T11:02:01.106Z,100549.16
2022-09-14T11:04:47.717Z,100534.94
2022-09-14T11:07:21.102Z,100525.53
2022-09-14T11:09:56.477Z,100521.41
2022-09-14T11:12:33.821Z,100521.72
2022-09-14T11:15:11.842Z,100524.25
2022-09-14T11:18:05.147Z,100527.59
2022-09-14T11:20:43.446Z,100515.38
2022-09-14T11:23:33.587Z,100495.03
2022-09-14T11:26:07.743Z,100508.31
2022-09-14T11:28:40.274Z,100506.59
2022-09-14T11:31:13.436Z,100523.66
2022-09-14T11:33:46.549Z,100525.25
2022-09-14T11:36:20.482Z,100517.44
2022-09-14T11:38:53.153Z,100510.22
2022-09-14T11:41:26.663Z,100525.63
2022-09-14T11:43:57.940Z,100527.06
2022-09-14T11:46:31.574Z,100514.44
2022-09-14T11:49:07.419Z,100530.59
2022-09-14T11:51:41.290Z,100530.69
2022-09-14T11:54:17.705Z,100538.72
2022-09-14T11:56:48.727Z,100546.09
2022-09-14T11:59:46.390Z,100560.88
2022-09-14T12:02:49.324Z,100565.63
2022-09-14T12:05:36.206Z,100565.59
2022-09-14T12:08:36.447Z,100582.09
2022-09-14T12:11:26.317Z,100588.50
2022-09-14T12:14:25.733Z,100611.00
2022-09-14T12:17:40.005Z,100599.13
2022-09-14T12:20:28.840Z,100595.03
2022-09-14T12:23:05.566Z,100587.28
2022-09-14T12:25:34.705Z,100572.38
2022-09-14T12:28:02.539Z,100573.31
2022-09-14T12:31:28.399Z,100542.34
2022-09-14T12:34:19.056Z,100522.25
2022-09-14T12:37:13.703Z,100534.44
2022-09-14T12:40:33.889Z,100518.31
2022-09-14T12:43:46.869Z,100483.31
2022-09-14T12:46:40.368Z,100504.47
2022-09-14T12:49:28.726Z,100496.91
2022-09-14T12:51:59.058Z,100495.72
2022-09-14T12:54:38.955Z,100479.81
2022-09-14T12:57:19.645Z,100491.50
2022-09-14T12:59:54.252Z,100495.16
2022-09-14T13:03:04.419Z,100515.81
2022-09-14T13:05:33.872Z,100533.66
2022-09-14T13:08:01.865Z,100524.47
2022-09-14T13:10:33.121Z,100521.06
2022-09-14T13:13:02.520Z,100517.91
2022-09-14T13:15:33.255Z,100519.97
2022-09-14T13:18:03.810Z,100515.53
2022-09-14T13:20:33.436Z,100511.50
2022-09-14T13:23:01.118Z,100520.06
2022-09-14T13:25:32.562Z,100510.25
2022-09-14T13:28:02.368Z,100517.84
2022-09-14T13:30:31.365Z,100507.78
2022-09-14T13:32:59.455Z,100520.53
2022-09-14T13:35:34.647Z,100526.94
2022-09-14T13:38:08.167Z,100547.72
2022-09-14T13:40:37.058Z,100545.81
2022-09-14T13:43:04.563Z,100562.94
2022-09-14T13:45:32.934Z,100549.69
2022-09-14T13:48:00.679Z,100561.72
2022-09-14T13:50:28.069Z,100571.53
2022-09-14T13:53:02.332Z,100563.84
2022-09-14T13:55:43.239Z,100559.16
2022-09-14T13:58:22.548Z,100546.00
2022-09-14T14:00:57.004Z,100522.22
2022-09-14T14:03:28.431Z,100526.91
2022-09-14T14:05:56.428Z,100516.78
2022-09-14T14:08:32.845Z,100502.56
2022-09-14T14:11:02.166Z,100510.16
2022-09-14T14:13:32.497Z,100499.00
2022-09-14T14:16:20.444Z,100475.94
2022-09-14T14:18:54.853Z,100462.88
2022-09-14T14:21:30.914Z,100451.03
2022-09-14T14:24:25.505Z,100446.69
2022-09-14T14:26:54.627Z,100461.78
2022-09-14T14:29:22.197Z,100460.03
2022-09-14T14:31:50.157Z,100459.34
2022-09-14T14:34:20.802Z,100460.81
2022-09-14T14:36:48.197Z,100453.66
2022-09-14T14:39:17.521Z,100459.72
2022-09-14T14:41:45.383Z,100462.53
2022-09-14T14:44:16.797Z,100454.94
2022-09-14T14:46:44.160Z,100454.34
2022-09-14T14:49:12.385Z,100453.56
2022-09-14T14:51:40.247Z,100433.47
2022-09-14T14:54:07.835Z,100439.97
2022-09-14T14:56:36.471Z,100436.47
2022-09-14T14:59:14.802Z,100443.13
2022-09-14T15:01:42.022Z,100409.31
2022-09-14T15:04:09.237Z,100409.69
2022-09-14T15:06:36.799Z,100396.63
2022-09-14T15:09:06.325Z,100401.41
2022-09-14T15:11:33.606Z,100402.69
2022-09-14T15:14:02.158Z,100396.28
2022-09-14T15:16:29.402Z,100403.34
2022-09-14T15:18:56.796Z,100413.50
2022-09-14T15:21:24.005Z,100420.66
2022-09-14T15:23:51.287Z,100412.25
2022-09-14T15:26:18.601Z,100409.44
2022-09-14T15:28:45.832Z,100411.16
2022-09-14T15:31:14.679Z,100418.09
2022-09-14T15:33:42.015Z,100425.44
2022-09-14T15:36:09.343Z,100432.66
2022-09-14T15:38:36.714Z,100403.63
2022-09-14T15:41:04.147Z,100397.19
2022-09-14T15:43:31.419Z,100397.72
2022-09-14T15:46:02.066Z,100405.28
2022-09-14T15:48:30.850Z,100395.56
2022-09-14T15:50:58.056Z,100397.13
2022-09-14T15:53:25.343Z,100393.28
2022-09-14T15:55:52.512Z,100382.06
2022-09-14T15:58:19.807Z,100388.09
2022-09-14T16:00:47.164Z,100395.47
2022-09-14T16:03:14.410Z,100409.25
2022-09-14T16:05:43.063Z,100407.38
2022-09-14T16:08:10.240Z,100416.56
2022-09-14T16:10:37.464Z,100401.75
2022-09-14T16:13:04.901Z,100424.25
2022-09-14T16:15:32.082Z,100440.31
2022-09-14T16:17:59.288Z,100440.88
2022-09-14T16:20:26.525Z,100425.56
2022-09-14T16:22:55.473Z,100427.59
2022-09-14T16:25:23.054Z,100420.97
2022-09-14T16:27:50.321Z,100423.16
2022-09-14T16:30:17.607Z,100428.00
2022-09-14T16:32:44.790Z,100453.25
2022-09-14T16:35:12.064Z,100467.16
2022-09-14T16:37:39.333Z,100467.13
2022-09-14T16:40:09.304Z,100460.19
2022-09-14T16:42:36.709Z,100456.56
2022-09-14T16:45:04.524Z,100475.69
2022-09-14T16:47:31.736Z,100475.25
2022-09-14T16:49:58.975Z,100486.47
2022-09-14T16:52:26.270Z,100502.25
2022-09-14T16:54:56.166Z,100511.47
2022-09-14T16:57:25.181Z,100512.94
2022-09-14T16:59:52.468Z,100512.72
2022-09-14T17:02:19.821Z,100520.34
2022-09-14T17:04:47.131Z,100524.25
2022-09-14T17:07:14.483Z,100525.50
2022-09-14T17:09:41.753Z,100529.72
2022-09-14T17:12:09.008Z,100525.50
2022-09-14T17:14:37.790Z,100523.69
2022-09-14T17:17:05.011Z,100521.09
2022-09-14T17:19:33.338Z,100521.38
2022-09-14T17:22:00.632Z,100517.78
2022-09-14T17:24:27.979Z,100522.03
2022-09-14T17:26:55.248Z,100524.06
2022-09-14T17:29:22.528Z,100519.63
2022-09-14T17:31:51.226Z,100531.88
2022-09-14T17:34:18.526Z,100539.97
2022-09-14T17:36:45.777Z,100536.09
2022-09-14T17:39:13.726Z,100537.16
2022-09-14T17:41:41.536Z,100536.66
2022-09-14T17:44:11.552Z,100531.41
2022-09-14T17:46:48.107Z,100527.72
2022-09-14T17:49:20.572Z,100534.75
2022-09-14T17:51:48.412Z,100531.59
2022-09-14T17:54:15.714Z,100538.16
2022-09-14T17:56:42.985Z,100534.72
2022-09-14T17:59:12.234Z,100538.56
2022-09-14T18:01:39.703Z,100547.59
2022-09-14T18:04:09.226Z,100560.84
2022-09-14T18:06:40.008Z,100557.38
2022-09-14T18:09:09.787Z,100570.28
2022-09-14T18:11:37.747Z,100578.00
2022-09-14T18:14:05.440Z,100578.00
2022-09-14T18:16:33.727Z,100583.09
2022-09-14T18:19:01.106Z,100576.69
2022-09-14T18:21:28.452Z,100582.09
2022-09-14T18:23:57.366Z,100585.41
2022-09-14T18:26:25.326Z,100591.66
2022-09-14T18:28:54.354Z,100587.72
2022-09-14T18:31:22.387Z,100590.13
2022-09-14T18:33:51.037Z,100588.69
2022-09-14T18:36:19.284Z,100586.84
2022-09-14T18:38:46.615Z,100588.19
2022-09-14T18:41:16.829Z,100592.47
2022-09-14T18:43:45.604Z,100594.59
2022-09-14T18:46:13.912Z,100599.31
2022-09-14T18:48:41.935Z,100604.53
2022-09-14T18:51:09.577Z,100588.38
2022-09-14T18:53:37.036Z,100599.09
2022-09-14T18:56:06.061Z,100596.19
2022-09-14T18:58:35.250Z,100598.38
2022-09-14T19:01:03.337Z,100605.72
2022-09-14T19:03:31.345Z,100610.34
2022-09-14T19:05:58.815Z,100607.97
2022-09-14T19:08:28.191Z,100608.75
2022-09-14T19:10:55.364Z,100614.78
2022-09-14T19:13:22.616Z,100602.94
2022-09-14T19:15:51.225Z,100597.88
2022-09-14T19:18:18.452Z,100596.31
2022-09-14T19:21:05.434Z,100604.88
2022-09-14T19:23:32.928Z,100616.53
2022-09-14T19:26:05.561Z,100620.34
2022-09-14T19:28:33.340Z,100615.09
2022-09-14T19:31:05.221Z,100627.84
2022-09-14T19:33:32.496Z,100633.47
2022-09-14T19:36:02.773Z,100653.25
2022-09-14T19:38:29.958Z,100665.06
2022-09-14T19:40:57.302Z,100666.25
2022-09-14T19:43:24.559Z,100678.28
2022-09-14T19:45:51.883Z,100679.44
2022-09-14T19:48:20.484Z,100706.50
2022-09-14T19:50:47.648Z,100741.72
2022-09-14T19:53:14.889Z,100762.22
2022-09-14T19:55:42.157Z,100784.31
2022-09-14T19:58:09.453Z,100791.91
2022-09-14T20:00:36.696Z,100809.19
2022-09-14T20:03:04.245Z,100819.75
2022-09-14T20:05:33.083Z,100827.44
2022-09-14T20:08:00.353Z,100843.69
2022-09-14T20:10:27.643Z,100845.75
2022-09-14T20:12:54.911Z,100873.72
2022-09-14T20:15:22.129Z,100883.75
2022-09-14T20:17:53.740Z,100887.47
2022-09-14T20:20:20.956Z,100900.28
2022-09-14T20:22:49.748Z,100896.09
2022-09-14T20:25:17.046Z,100901.53
2022-09-14T20:27:46.364Z,100902.00
2022-09-14T20:30:13.891Z,100898.31
2022-09-14T20:32:41.068Z,100894.88
2022-09-14T20:35:08.889Z,100889.59
2022-09-14T20:37:36.108Z,100891.91
2022-09-14T20:40:05.908Z,100899.41
2022-09-14T20:42:33.471Z,100901.91
2022-09-14T20:45:00.703Z,100896.00
2022-09-14T20:47:28.049Z,100896.91
2022-09-14T20:49:55.296Z,100885.22
2022-09-14T20:52:22.499Z,100895.41
2022-09-14T20:54:49.810Z,100901.03
2022-09-14T20:57:18.545Z,100898.38
2022-09-14T20:59:46.093Z,100893.19
2022-09-14T21:02:13.483Z,100899.34
2022-09-14T21:04:40.833Z,100907.59
2022-09-14T21:07:08.181Z,100909.47
2022-09-14T21:09:35.606Z,100913.69
2022-09-14T21:12:03.265Z,100917.59
2022-09-14T21:14:32.161Z,100926.94
2022-09-14T21:16:59.655Z,100930.66
2022-09-14T21:19:28.554Z,100924.44
2022-09-14T21:21:56.081Z,100940.97
2022-09-14T21:24:23.777Z,100940.34
2022-09-14T21:26:51.060Z,100935.03
2022-09-14T21:29:19.983Z,100947.03
2022-09-14T21:31:49.012Z,100937.22
2022-09-14T21:34:16.733Z,100947.94
2022-09-14T21:36:45.765Z,100955.13
2022-09-14T21:39:16.745Z,100961.69
2022-09-14T21:41:45.017Z,100960.59
2022-09-14T21:44:13.128Z,100966.97
2022-09-14T21:46:40.886Z,100963.88
2022-09-14T21:49:13.376Z,100962.75
2022-09-14T21:51:41.056Z,100973.97
2022-09-14T21:54:09.880Z,100968.66
2022-09-14T21:56:38.987Z,100984.06
2022-09-14T21:59:08.962Z,101000.09
2022-09-14T22:01:36.580Z,101010.56
2022-09-14T22:04:04.809Z,101029.72
2022-09-14T22:06:34.042Z,101043.69
2022-09-14T22:09:01.937Z,101061.00
2022-09-14T22:11:30.994Z,101059.09
2022-09-14T22:14:00.757Z,101067.94
2022-09-14T22:16:29.516Z,101077.69
2022-09-14T22:18:58.641Z,101075.81
2022-09-14T22:21:28.523Z,101065.84
2022-09-14T22:23:59.324Z,101072.13
2022-09-14T22:26:28.662Z,101056.84
2022-09-14T22:28:58.268Z,101067.25
2022-09-14T22:31:27.670Z,101068.06
2022-09-14T22:33:56.733Z,101067.41
2022-09-14T22:36:24.021Z,101070.81
2022-09-14T22:38:54.166Z,101082.75
2022-09-14T22:41:22.931Z,101095.34
2022-09-14T22:43:50.171Z,101120.25
2022-09-14T22:46:18.819Z,101137.06
2022-09-14T22:48:46.404Z,101147.63
2022-09-14T22:51:16.238Z,101154.75
2022-09-14T22:53:43.780Z,101172.59
2022-09-14T22:56:15.147Z,101188.28
2022-09-14T22:58:44.311Z,101204.78
2022-09-14T23:01:14.295Z,101216.00
2022-09-14T23:03:41.855Z,101232.72
2022-09-14T23:06:09.337Z,101248.88
2022-09-14T23:08:36.721Z,101268.25
2022-09-14T23:11:05.263Z,101283.28
2022-09-14T23:13:35.570Z,101299.31
2022-09-14T23:16:09.255Z,101310.78
2022-09-14T23:18:36.572Z,101313.56
2022-09-14T23:21:04.933Z,101332.38
2022-09-14T23:23:32.383Z,101343.72
2022-09-14T23:26:03.156Z,101342.72
2022-09-14T23:28:30.797Z,101350.91
2022-09-14T23:30:58.409Z,101371.16
2022-09-14T23:33:27.555Z,101385.59
2022-09-14T23:35:55.160Z,101392.69
2022-09-14T23:38:22.645Z,101388.19
2022-09-14T23:40:50.058Z,101392.00
2022-09-14T23:43:18.142Z,101390.00
2022-09-14T23:45:46.181Z,101392.69
2022-09-14T23:48:14.450Z,101399.53
2022-09-14T23:50:43.213Z,101410.03
2022-09-14T23:53:10.822Z,101424.38
2022-09-14T23:55:43.274Z,101420.66
2022-09-14T23:58:33.943Z,101433.09
